createdAt,value
2023-02-18T00:00:19.181Z,100290.47
2023-02-18T00:05:23.125Z,100290.13
2023-02-18T00:10:26.047Z,100283.50
2023-02-18T00:15:29.030Z,100273.22
2023-02-18T00:20:33.665Z,100257.22
2023-02-18T00:25:36.594Z,100262.38
2023-02-18T00:30:44.194Z,100269.66
2023-02-18T00:35:47.640Z,100255.41
2023-02-18T00:40:50.656Z,100259.59
2023-02-18T00:45:54.295Z,100253.44
2023-02-18T00:50:57.295Z,100242.28
2023-02-18T00:56:01.475Z,100249.25
2023-02-18T01:01:07.695Z,100230.25
2023-02-18T01:06:12.289Z,100234.19
2023-02-18T01:11:15.415Z,100227.69
2023-02-18T01:16:18.550Z,100223.19
2023-02-18T01:21:21.492Z,100231.28
2023-02-18T01:26:24.473Z,100228.28
2023-02-18T01:31:27.855Z,100225.53
2023-02-18T01:36:31.042Z,100224.50
2023-02-18T01:41:33.882Z,100214.66
2023-02-18T01:46:37.485Z,100212.38
2023-02-18T01:51:47.273Z,100205.13
2023-02-18T01:57:05.325Z,100203.81
2023-02-18T02:02:16.934Z,100204.63
2023-02-18T02:07:23.694Z,100188.00
2023-02-18T02:12:45.313Z,100195.19
2023-02-18T02:18:40.526Z,100179.72
2023-02-18T02:24:20.673Z,100182.72
2023-02-18T02:29:44.768Z,100173.38
2023-02-18T02:35:07.206Z,100177.50
2023-02-18T02:40:09.953Z,100187.19
2023-02-18T02:46:07.444Z,100196.44
2023-02-18T02:51:45.053Z,100205.28
2023-02-18T02:56:48.676Z,100205.75
2023-02-18T03:02:21.927Z,100220.53
2023-02-18T03:08:01.612Z,100200.59
2023-02-18T03:13:19.927Z,100201.97
2023-02-18T03:19:02.185Z,100213.66
2023-02-18T03:24:16.706Z,100205.47
2023-02-18T03:29:21.555Z,100214.66
2023-02-18T03:34:33.674Z,100201.34
2023-02-18T03:39:39.393Z,100219.31
2023-02-18T03:44:42.323Z,100218.34
2023-02-18T03:49:45.887Z,100229.00
2023-02-18T03:54:48.982Z,100249.47
2023-02-18T03:59:51.735Z,100240.59
2023-02-18T04:04:54.726Z,100241.88
2023-02-18T04:09:57.693Z,100230.22
2023-02-18T04:15:00.451Z,100228.72
2023-02-18T04:20:04.734Z,100226.78
2023-02-18T04:25:08.687Z,100228.16
2023-02-18T04:30:12.641Z,100243.50
2023-02-18T04:35:15.835Z,100223.09
2023-02-18T04:40:18.897Z,100243.94
2023-02-18T04:45:21.841Z,100245.03
2023-02-18T04:50:24.822Z,100247.63
2023-02-18T04:55:27.725Z,100284.50
2023-02-18T05:00:30.559Z,100279.41
2023-02-18T05:05:33.616Z,100287.41
2023-02-18T05:10:39.201Z,100292.81
2023-02-18T05:15:42.461Z,100294.50
2023-02-18T05:20:45.441Z,100295.50
2023-02-18T05:25:48.607Z,100301.56
2023-02-18T05:30:51.535Z,100319.06
2023-02-18T05:35:54.885Z,100338.38
2023-02-18T05:40:57.950Z,100339.53
2023-02-18T05:46:01.201Z,100337.22
2023-02-18T05:51:05.162Z,100338.88
2023-02-18T05:56:08.651Z,100364.00
2023-02-18T06:01:11.754Z,100365.34
2023-02-18T06:06:14.968Z,100376.47
2023-02-18T06:11:18.081Z,100374.31
2023-02-18T06:16:21.226Z,100384.25
2023-02-18T06:21:24.646Z,100383.63
2023-02-18T06:26:27.724Z,100395.06
2023-02-18T06:31:30.833Z,100380.78
2023-02-18T06:36:33.904Z,100383.97
2023-02-18T06:41:36.898Z,100386.44
2023-02-18T06:46:40.062Z,100389.75
2023-02-18T06:51:43.067Z,100398.09
2023-02-18T06:56:46.049Z,100404.88
2023-02-18T07:01:49.007Z,100394.25
2023-02-18T07:06:52.104Z,100409.84
2023-02-18T07:11:55.070Z,100405.34
2023-02-18T07:16:58.279Z,100409.84
2023-02-18T07:22:01.632Z,100418.69
2023-02-18T07:27:05.572Z,100410.03
2023-02-18T07:32:08.538Z,100405.88
2023-02-18T07:37:12.506Z,100419.19
2023-02-18T07:42:15.672Z,100414.53
2023-02-18T07:47:21.573Z,100417.19
2023-02-18T07:52:24.990Z,100420.69
2023-02-18T07:57:27.668Z,100414.50
2023-02-18T08:02:30.480Z,100405.81
2023-02-18T08:07:33.266Z,100406.03
2023-02-18T08:12:36.229Z,100416.75
2023-02-18T08:17:39.087Z,100413.06
2023-02-18T08:22:42.076Z,100406.09
2023-02-18T08:27:45.029Z,100423.28
2023-02-18T08:32:48.041Z,100410.13
2023-02-18T08:37:53.110Z,100416.06
2023-02-18T08:42:57.462Z,100418.31
2023-02-18T08:48:18.286Z,100410.31
2023-02-18T08:53:23.224Z,100406.13
2023-02-18T08:58:26.213Z,100402.13
2023-02-18T09:03:29.416Z,100397.84
2023-02-18T09:08:32.410Z,100412.25
2023-02-18T09:13:35.392Z,100402.19
2023-02-18T09:18:38.932Z,100378.34
2023-02-18T09:23:42.982Z,100392.03
2023-02-18T09:28:45.878Z,100394.38
2023-02-18T09:33:56.588Z,100388.69
2023-02-18T09:39:00.214Z,100372.78
2023-02-18T09:44:11.735Z,100396.16
2023-02-18T09:49:26.465Z,100393.59
2023-02-18T09:54:30.050Z,100395.78
2023-02-18T09:59:33.073Z,100400.81
2023-02-18T10:04:44.980Z,100395.97
2023-02-18T10:09:51.999Z,100402.16
2023-02-18T10:15:01.368Z,100396.72
2023-02-18T10:20:07.933Z,100378.03
2023-02-18T10:25:20.696Z,100381.91
2023-02-18T10:30:55.635Z,100380.59
2023-02-18T10:36:30.255Z,100390.69
2023-02-18T10:42:18.225Z,100389.66
2023-02-18T10:47:30.948Z,100388.63
2023-02-18T10:52:47.573Z,100373.72
2023-02-18T10:57:55.662Z,100375.78
2023-02-18T11:03:38.949Z,100371.88
2023-02-18T11:08:45.415Z,100373.47
2023-02-18T11:13:59.020Z,100368.00
2023-02-18T11:19:04.506Z,100355.84
2023-02-18T11:24:15.366Z,100360.34
2023-02-18T11:29:20.163Z,100333.81
2023-02-18T11:34:33.236Z,100330.13
2023-02-18T11:39:36.610Z,100313.72
2023-02-18T11:44:53.487Z,100309.94
2023-02-18T11:50:10.833Z,100297.63
2023-02-18T11:55:22.602Z,100286.34
2023-02-18T12:00:40.667Z,100267.84
2023-02-18T12:05:45.836Z,100254.75
2023-02-18T12:10:56.056Z,100254.66
2023-02-18T12:16:26.886Z,100238.84
2023-02-18T12:21:53.424Z,100236.94
2023-02-18T12:27:22.703Z,100212.31
2023-02-18T12:32:56.715Z,100194.19
2023-02-18T12:38:11.193Z,100196.25
2023-02-18T12:43:48.837Z,100192.44
2023-02-18T12:49:21.580Z,100178.06
2023-02-18T12:55:08.335Z,100165.22
2023-02-18T13:00:36.126Z,100161.31
2023-02-18T13:05:54.609Z,100138.63
2023-02-18T13:11:12.823Z,100146.06
2023-02-18T13:16:19.908Z,100136.31
2023-02-18T13:21:24.051Z,100120.53
2023-02-18T13:26:31.389Z,100121.41
2023-02-18T13:32:10.633Z,100117.13
2023-02-18T13:37:37.375Z,100106.44
2023-02-18T13:42:40.377Z,100107.22
2023-02-18T13:47:49.849Z,100079.97
2023-02-18T13:53:08.081Z,100067.81
2023-02-18T13:58:23.811Z,100077.25
2023-02-18T14:03:36.213Z,100079.72
2023-02-18T14:08:40.497Z,100061.38
2023-02-18T14:14:25.857Z,100042.78
2023-02-18T14:19:30.189Z,100059.81
2023-02-18T14:24:49.950Z,100045.63
2023-02-18T14:29:53.078Z,100044.00
2023-02-18T14:35:20.986Z,100039.09
2023-02-18T14:40:42.902Z,100037.09
2023-02-18T14:46:33.278Z,100025.78
2023-02-18T14:51:36.551Z,100015.06
2023-02-18T14:56:58.621Z,100011.34
2023-02-18T15:02:01.813Z,100014.75
2023-02-18T15:07:10.019Z,99998.66
2023-02-18T15:12:19.730Z,99999.03
2023-02-18T15:17:29.527Z,99995.25
2023-02-18T15:22:35.513Z,99993.13
2023-02-18T15:27:44.469Z,99990.59
2023-02-18T15:32:54.296Z,99981.69
2023-02-18T15:38:00.323Z,99969.91
2023-02-18T15:43:06.559Z,99963.84
2023-02-18T15:48:45.377Z,99960.84
2023-02-18T15:53:52.575Z,99952.47
2023-02-18T15:59:35.548Z,99965.66
2023-02-18T16:04:41.271Z,99951.75
2023-02-18T16:09:44.243Z,99952.38
2023-02-18T16:14:50.445Z,99960.16
2023-02-18T16:20:18.348Z,99956.63
2023-02-18T16:25:41.344Z,99949.88
2023-02-18T16:30:46.244Z,99956.13
2023-02-18T16:35:50.726Z,99946.00
2023-02-18T16:40:55.326Z,99954.94
2023-02-18T16:46:06.298Z,99952.59
2023-02-18T16:51:24.004Z,99966.13
2023-02-18T16:56:33.220Z,99972.25
2023-02-18T17:01:44.859Z,99972.22
2023-02-18T17:06:48.735Z,99972.84
2023-02-18T17:11:55.457Z,99986.38
2023-02-18T17:16:58.941Z,99977.81
2023-02-18T17:22:01.839Z,99971.88
2023-02-18T17:27:04.582Z,99974.91
2023-02-18T17:32:08.595Z,99972.28
2023-02-18T17:37:14.733Z,99972.94
2023-02-18T17:42:17.769Z,99965.13
2023-02-18T17:47:20.770Z,99969.41
2023-02-18T17:52:31.212Z,99978.94
2023-02-18T17:57:34.130Z,99970.44
2023-02-18T18:02:37.568Z,99971.91
2023-02-18T18:07:40.573Z,99970.88
2023-02-18T18:12:44.917Z,99969.47
2023-02-18T18:17:48.204Z,99972.78
2023-02-18T18:22:54.891Z,99969.25
2023-02-18T18:27:58.423Z,99969.03
2023-02-18T18:33:02.524Z,99969.88
2023-02-18T18:38:06.366Z,99962.47
2023-02-18T18:43:21.236Z,99955.75
2023-02-18T18:48:24.843Z,99959.66
2023-02-18T18:53:32.125Z,99955.97
2023-02-18T18:58:35.235Z,99949.56
2023-02-18T19:03:38.601Z,99975.34
2023-02-18T19:08:41.857Z,99978.47
2023-02-18T19:13:45.987Z,99989.16
2023-02-18T19:18:49.152Z,99992.59
2023-02-18T19:23:52.099Z,99987.31
2023-02-18T19:28:54.934Z,99995.31
2023-02-18T19:33:57.807Z,100009.28
2023-02-18T19:39:00.780Z,100018.56
2023-02-18T19:44:04.523Z,100010.69
2023-02-18T19:49:07.555Z,100007.19
2023-02-18T19:54:10.537Z,99979.72
2023-02-18T19:59:13.523Z,99991.47
2023-02-18T20:04:17.012Z,99981.66
2023-02-18T20:09:20.179Z,99988.81
2023-02-18T20:14:23.990Z,99982.84
2023-02-18T20:19:30.915Z,99987.50
2023-02-18T20:24:35.084Z,100002.88
2023-02-18T20:29:38.334Z,100006.91
2023-02-18T20:34:43.732Z,99999.78
2023-02-18T20:39:46.723Z,99982.94
2023-02-18T20:44:51.555Z,99995.75
2023-02-18T20:49:54.599Z,100015.75
2023-02-18T20:54:57.640Z,100004.13
2023-02-18T21:00:00.727Z,99989.84
2023-02-18T21:05:04.108Z,99997.34
2023-02-18T21:10:07.910Z,100015.88
2023-02-18T21:15:10.977Z,100007.34
2023-02-18T21:20:14.046Z,100012.22
2023-02-18T21:25:17.007Z,100024.81
2023-02-18T21:30:20.458Z,100028.13
2023-02-18T21:35:25.188Z,100027.75
2023-02-18T21:40:28.550Z,100042.19
2023-02-18T21:45:31.677Z,100043.00
2023-02-18T21:50:34.596Z,100045.88
2023-02-18T21:55:37.587Z,100052.56
2023-02-18T22:00:40.507Z,100061.13
2023-02-18T22:05:44.364Z,100066.19
2023-02-18T22:10:47.320Z,100058.16
2023-02-18T22:15:57.779Z,100068.81
2023-02-18T22:21:04.356Z,100079.41
2023-02-18T22:26:09.624Z,100083.84
2023-02-18T22:31:14.239Z,100077.63
2023-02-18T22:36:19.502Z,100097.13
2023-02-18T22:41:24.801Z,100100.06
2023-02-18T22:46:30.378Z,100093.63
2023-02-18T22:51:37.883Z,100099.00
2023-02-18T22:56:41.768Z,100102.19
2023-02-18T23:01:53.001Z,100099.03
2023-02-18T23:06:56.939Z,100125.81
2023-02-18T23:12:00.362Z,100108.56
2023-02-18T23:17:14.345Z,100101.09
2023-02-18T23:22:24.817Z,100113.75
2023-02-18T23:27:29.026Z,100117.28
2023-02-18T23:32:32.088Z,100127.09
2023-02-18T23:37:53.603Z,100108.34
2023-02-18T23:42:56.637Z,100110.22
2023-02-18T23:47:59.753Z,100111.19
2023-02-18T23:53:02.561Z,100106.03
2023-02-18T23:58:05.856Z,100111.72
